createdAt,value
2023-01-08T00:01:12.457Z,78.13
2023-01-08T00:03:39.976Z,78.22
2023-01-08T00:06:10.618Z,77.87
2023-01-08T00:08:37.237Z,77.81
2023-01-08T00:11:03.673Z,78.18
2023-01-08T00:13:30.188Z,78.03
2023-01-08T00:15:56.663Z,77.62
2023-01-08T00:18:24.729Z,77.71
2023-01-08T00:20:51.190Z,77.76
2023-01-08T00:23:19.547Z,77.69
2023-01-08T00:25:46.742Z,77.15
2023-01-08T00:28:14.978Z,77.09
2023-01-08T00:30:42.078Z,76.75
2023-01-08T00:33:08.799Z,76.83
2023-01-08T00:35:37.218Z,76.66
2023-01-08T00:38:03.666Z,76.79
2023-01-08T00:40:30.140Z,76.99
2023-01-08T00:42:56.595Z,76.39
2023-01-08T00:45:23.073Z,76.39
2023-01-08T00:47:49.505Z,76.43
2023-01-08T00:50:16.713Z,75.98
2023-01-08T00:52:43.244Z,75.58
2023-01-08T00:55:09.914Z,75.30
2023-01-08T00:57:38.349Z,75.16
2023-01-08T01:00:08.673Z,75.35
2023-01-08T01:02:36.429Z,75.19
2023-01-08T01:05:03.409Z,74.70
2023-01-08T01:07:29.889Z,75.17
2023-01-08T01:09:56.406Z,74.66
2023-01-08T01:12:22.945Z,74.92
2023-01-08T01:14:49.429Z,75.49
2023-01-08T01:17:16.029Z,76.04
2023-01-08T01:19:43.165Z,76.59
2023-01-08T01:22:09.600Z,77.52
2023-01-08T01:24:36.347Z,77.91
2023-01-08T01:27:02.829Z,78.68
2023-01-08T01:29:29.244Z,78.84
2023-01-08T01:31:57.604Z,79.28
2023-01-08T01:34:24.407Z,78.95
2023-01-08T01:36:50.839Z,79.17
2023-01-08T01:39:17.355Z,80.15
2023-01-08T01:41:46.066Z,81.00
2023-01-08T01:44:34.608Z,81.24
2023-01-08T01:47:05.437Z,81.71
2023-01-08T01:49:33.017Z,82.34
2023-01-08T01:52:02.726Z,82.21
2023-01-08T01:54:31.265Z,83.03
2023-01-08T01:56:59.642Z,83.08
2023-01-08T01:59:26.119Z,83.13
2023-01-08T02:01:53.018Z,83.56
2023-01-08T02:04:19.556Z,84.05
2023-01-08T02:07:13.908Z,83.32
2023-01-08T02:09:51.903Z,83.83
2023-01-08T02:12:26.335Z,83.54
2023-01-08T02:15:03.189Z,83.87
2023-01-08T02:17:45.999Z,84.03
2023-01-08T02:20:18.813Z,83.47
2023-01-08T02:23:09.180Z,83.93
2023-01-08T02:25:57.492Z,83.93
2023-01-08T02:28:26.204Z,83.73
2023-01-08T02:30:53.233Z,84.33
2023-01-08T02:33:19.676Z,84.54
2023-01-08T02:35:54.492Z,84.64
2023-01-08T02:38:23.349Z,84.63
2023-01-08T02:41:07.179Z,84.75
2023-01-08T02:43:47.970Z,84.72
2023-01-08T02:46:19.176Z,85.04
2023-01-08T02:48:49.007Z,85.14
2023-01-08T02:51:30.636Z,84.96
2023-01-08T02:54:04.568Z,85.13
2023-01-08T02:56:35.868Z,85.27
2023-01-08T02:59:05.221Z,85.64
2023-01-08T03:01:33.639Z,86.16
2023-01-08T03:04:06.311Z,85.95
2023-01-08T03:06:33.262Z,86.07
2023-01-08T03:09:00.255Z,85.51
2023-01-08T03:11:33.098Z,85.55
2023-01-08T03:14:21.699Z,85.85
2023-01-08T03:16:55.253Z,86.00
2023-01-08T03:19:35.538Z,86.94
2023-01-08T03:22:03.745Z,87.09
2023-01-08T03:24:35.086Z,86.84
2023-01-08T03:27:05.538Z,86.62
2023-01-08T03:29:34.169Z,86.63
2023-01-08T03:32:05.422Z,86.97
2023-01-08T03:34:34.856Z,87.31
2023-01-08T03:37:04.998Z,87.05
2023-01-08T03:39:40.102Z,87.21
2023-01-08T03:42:10.408Z,87.45
2023-01-08T03:44:37.030Z,87.61
2023-01-08T03:47:04.359Z,88.31
2023-01-08T03:49:31.268Z,89.32
2023-01-08T03:51:57.680Z,88.53
2023-01-08T03:54:30.262Z,89.30
2023-01-08T03:56:56.989Z,89.13
2023-01-08T03:59:23.946Z,90.12
2023-01-08T04:01:50.535Z,89.69
2023-01-08T04:04:17.739Z,90.15
2023-01-08T04:06:44.301Z,89.78
2023-01-08T04:09:10.709Z,88.67
2023-01-08T04:11:37.224Z,88.74
2023-01-08T04:14:03.709Z,88.82
2023-01-08T04:16:30.173Z,88.61
2023-01-08T04:18:56.553Z,88.52
2023-01-08T04:21:22.963Z,88.75
2023-01-08T04:23:49.394Z,88.17
2023-01-08T04:26:15.805Z,88.64
2023-01-08T04:28:42.239Z,88.43
2023-01-08T04:31:09.980Z,88.39
2023-01-08T04:33:36.753Z,88.86
2023-01-08T04:36:04.244Z,89.36
2023-01-08T04:38:30.726Z,89.16
2023-01-08T04:40:58.601Z,89.98
2023-01-08T04:43:25.184Z,89.26
2023-01-08T04:45:51.730Z,89.33
2023-01-08T04:48:18.251Z,89.52
2023-01-08T04:50:44.740Z,89.62
2023-01-08T04:53:11.182Z,89.53
2023-01-08T04:55:39.667Z,88.97
2023-01-08T04:58:06.369Z,88.86
2023-01-08T05:00:32.954Z,88.93
2023-01-08T05:02:59.464Z,88.33
2023-01-08T05:05:26.001Z,88.77
2023-01-08T05:07:52.536Z,88.58
2023-01-08T05:10:18.978Z,88.54
2023-01-08T05:12:45.414Z,88.91
2023-01-08T05:15:11.813Z,88.58
2023-01-08T05:17:38.265Z,87.87
2023-01-08T05:20:05.081Z,87.49
2023-01-08T05:22:31.549Z,88.55
2023-01-08T05:24:58.004Z,87.60
2023-01-08T05:27:24.462Z,87.05
2023-01-08T05:29:51.739Z,87.35
2023-01-08T05:32:19.008Z,87.32
2023-01-08T05:34:46.189Z,87.24
2023-01-08T05:37:12.718Z,87.74
2023-01-08T05:39:39.184Z,87.46
2023-01-08T05:42:05.682Z,87.74
2023-01-08T05:44:32.116Z,88.26
2023-01-08T05:46:58.606Z,87.49
2023-01-08T05:49:25.145Z,87.99
2023-01-08T05:51:51.586Z,87.75
2023-01-08T05:54:18.026Z,88.33
2023-01-08T05:56:44.556Z,88.72
2023-01-08T05:59:12.064Z,88.36
2023-01-08T06:01:38.535Z,87.81
2023-01-08T06:04:05.300Z,87.85
2023-01-08T06:06:31.886Z,87.26
2023-01-08T06:08:58.417Z,87.75
2023-01-08T06:11:24.866Z,87.79
2023-01-08T06:13:51.343Z,87.00
2023-01-08T06:16:17.790Z,87.19
2023-01-08T06:18:44.276Z,86.25
2023-01-08T06:21:12.395Z,86.13
2023-01-08T06:23:39.737Z,85.91
2023-01-08T06:26:06.345Z,85.76
2023-01-08T06:28:33.021Z,85.31
2023-01-08T06:31:01.559Z,85.78
2023-01-08T06:33:28.517Z,85.80
2023-01-08T06:35:55.089Z,86.17
2023-01-08T06:38:21.670Z,85.87
2023-01-08T06:40:48.105Z,85.59
2023-01-08T06:43:14.779Z,85.40
2023-01-08T06:45:41.187Z,85.72
2023-01-08T06:48:07.657Z,85.55
2023-01-08T06:50:34.800Z,85.63
2023-01-08T06:53:01.536Z,85.06
2023-01-08T06:55:27.975Z,85.01
2023-01-08T06:57:55.346Z,85.21
2023-01-08T07:00:26.136Z,85.29
2023-01-08T07:02:53.823Z,92.14
2023-01-08T07:05:20.937Z,94.53
2023-01-08T07:07:47.449Z,90.03
2023-01-08T07:10:14.123Z,87.25
2023-01-08T07:12:40.695Z,84.40
2023-01-08T07:15:07.991Z,79.19
2023-01-08T07:17:34.923Z,79.46
2023-01-08T07:20:01.435Z,78.98
2023-01-08T07:22:28.310Z,77.73
2023-01-08T07:24:55.114Z,78.84
2023-01-08T07:27:21.628Z,77.91
2023-01-08T07:29:48.307Z,77.35
2023-01-08T07:32:14.741Z,77.24
2023-01-08T07:34:41.130Z,76.11
2023-01-08T07:37:07.573Z,75.76
2023-01-08T07:39:34.106Z,73.42
2023-01-08T07:42:00.923Z,74.44
2023-01-08T07:44:27.348Z,73.78
2023-01-08T07:46:53.844Z,73.61
2023-01-08T07:49:20.343Z,73.25
2023-01-08T07:51:49.228Z,72.58
2023-01-08T07:54:15.721Z,73.02
2023-01-08T07:56:42.189Z,72.99
2023-01-08T07:59:08.726Z,73.45
2023-01-08T08:01:35.296Z,72.18
2023-01-08T08:04:01.746Z,73.43
2023-01-08T08:06:28.143Z,74.83
2023-01-08T08:08:57.133Z,75.71
2023-01-08T08:11:23.543Z,77.01
2023-01-08T08:13:52.604Z,77.81
2023-01-08T08:16:20.035Z,78.71
2023-01-08T08:18:46.714Z,79.28
2023-01-08T08:21:13.210Z,79.96
2023-01-08T08:23:39.709Z,80.63
2023-01-08T08:26:07.917Z,81.30
2023-01-08T08:28:34.550Z,81.92
2023-01-08T08:31:03.631Z,82.10
2023-01-08T08:33:30.292Z,82.55
2023-01-08T08:35:56.818Z,82.61
2023-01-08T08:38:25.065Z,83.32
2023-01-08T08:40:51.929Z,83.92
2023-01-08T08:43:18.818Z,83.92
2023-01-08T08:45:45.569Z,83.82
2023-01-08T08:48:12.268Z,83.96
2023-01-08T08:50:39.287Z,84.30
2023-01-08T08:53:06.479Z,84.94
2023-01-08T08:55:38.403Z,84.23
2023-01-08T08:58:07.808Z,83.92
2023-01-08T09:00:34.738Z,83.42
2023-01-08T09:03:01.605Z,83.85
2023-01-08T09:05:28.947Z,83.86
2023-01-08T09:07:56.030Z,83.89
2023-01-08T09:10:24.162Z,83.63
2023-01-08T09:12:53.459Z,83.07
2023-01-08T09:15:23.448Z,82.95
2023-01-08T09:17:57.230Z,83.15
2023-01-08T09:20:25.459Z,83.14
2023-01-08T09:22:52.279Z,82.62
2023-01-08T09:25:19.397Z,83.16
2023-01-08T09:27:46.167Z,83.04
2023-01-08T09:30:12.791Z,83.61
2023-01-08T09:32:39.442Z,83.89
2023-01-08T09:35:07.066Z,84.18
2023-01-08T09:37:34.898Z,83.63
2023-01-08T09:40:03.964Z,83.81
2023-01-08T09:42:32.673Z,83.32
2023-01-08T09:45:01.872Z,83.67
2023-01-08T09:47:38.186Z,83.86
2023-01-08T09:50:11.319Z,83.48
2023-01-08T09:52:39.379Z,83.80
2023-01-08T09:55:14.124Z,83.41
2023-01-08T09:57:44.595Z,84.11
2023-01-08T10:00:33.786Z,84.10
2023-01-08T10:03:00.620Z,83.07
2023-01-08T10:05:28.444Z,83.45
2023-01-08T10:07:55.535Z,82.62
2023-01-08T10:10:29.306Z,82.61
2023-01-08T10:12:56.233Z,83.12
2023-01-08T10:15:24.976Z,82.57
2023-01-08T10:18:00.805Z,81.93
2023-01-08T10:20:27.631Z,81.55
2023-01-08T10:22:56.476Z,81.80
2023-01-08T10:25:26.139Z,81.07
2023-01-08T10:27:58.923Z,81.36
2023-01-08T10:30:39.944Z,81.84
2023-01-08T10:33:21.843Z,80.17
2023-01-08T10:36:09.211Z,79.54
2023-01-08T10:38:49.825Z,79.52
2023-01-08T10:41:18.342Z,79.74
2023-01-08T10:43:55.376Z,80.06
2023-01-08T10:46:25.086Z,79.50
2023-01-08T10:48:56.209Z,79.53
2023-01-08T10:51:28.702Z,80.18
2023-01-08T10:53:59.480Z,80.09
2023-01-08T10:56:29.618Z,81.13
2023-01-08T10:59:02.570Z,79.70
2023-01-08T11:01:31.757Z,80.95
2023-01-08T11:04:05.056Z,80.92
2023-01-08T11:06:34.302Z,80.52
2023-01-08T11:09:04.225Z,80.22
2023-01-08T11:11:35.747Z,80.36
2023-01-08T11:14:06.325Z,80.43
2023-01-08T11:16:37.009Z,80.13
2023-01-08T11:19:05.077Z,78.93
2023-01-08T11:21:33.480Z,79.04
2023-01-08T11:24:22.798Z,78.49
2023-01-08T11:26:54.001Z,78.56
2023-01-08T11:29:32.216Z,77.66
2023-01-08T11:32:19.029Z,77.42
2023-01-08T11:34:56.435Z,77.46
2023-01-08T11:37:29.262Z,76.84
2023-01-08T11:39:57.003Z,77.04
2023-01-08T11:42:44.954Z,77.80
2023-01-08T11:45:25.104Z,78.29
2023-01-08T11:48:47.875Z,78.87
2023-01-08T11:51:52.486Z,78.53
2023-01-08T11:54:42.086Z,78.75
2023-01-08T11:57:18.470Z,77.97
2023-01-08T12:00:19.254Z,79.04
2023-01-08T12:02:59.740Z,78.50
2023-01-08T12:05:52.055Z,78.20
2023-01-08T12:09:00.895Z,77.14
2023-01-08T12:11:34.424Z,77.53
2023-01-08T12:14:22.293Z,77.51
2023-01-08T12:17:04.836Z,78.05
2023-01-08T12:19:57.376Z,77.52
2023-01-08T12:22:47.392Z,77.24
2023-01-08T12:25:35.356Z,77.89
2023-01-08T12:28:28.543Z,78.06
2023-01-08T12:31:30.476Z,78.51
2023-01-08T12:34:05.858Z,78.18
2023-01-08T12:36:44.551Z,77.39
2023-01-08T12:39:24.371Z,77.24
2023-01-08T12:41:54.388Z,76.96
2023-01-08T12:44:26.680Z,76.34
2023-01-08T12:46:55.374Z,76.31
2023-01-08T12:49:32.322Z,76.53
2023-01-08T12:52:11.470Z,76.60
2023-01-08T12:54:48.920Z,77.20
2023-01-08T12:57:49.030Z,77.58
2023-01-08T13:00:23.148Z,77.47
2023-01-08T13:02:57.907Z,78.25
2023-01-08T13:05:24.787Z,78.78
2023-01-08T13:07:54.787Z,79.09
2023-01-08T13:10:39.879Z,78.63
2023-01-08T13:13:23.331Z,79.38
2023-01-08T13:15:50.437Z,80.40
2023-01-08T13:18:19.634Z,81.98
2023-01-08T13:20:57.507Z,83.42
2023-01-08T13:23:27.533Z,83.54
2023-01-08T13:25:57.460Z,83.25
2023-01-08T13:28:27.701Z,83.45
2023-01-08T13:30:57.702Z,82.70
2023-01-08T13:33:39.747Z,83.15
2023-01-08T13:36:20.887Z,83.63
2023-01-08T13:39:00.736Z,83.43
2023-01-08T13:41:41.749Z,83.24
2023-01-08T13:44:28.255Z,82.92
2023-01-08T13:47:01.291Z,83.83
2023-01-08T13:49:50.307Z,82.80
2023-01-08T13:52:46.140Z,82.43
2023-01-08T13:55:20.154Z,82.79
2023-01-08T13:57:51.176Z,82.31
2023-01-08T14:00:45.378Z,81.75
2023-01-08T14:03:30.163Z,81.95
2023-01-08T14:06:26.249Z,81.09
2023-01-08T14:08:58.766Z,80.66
2023-01-08T14:11:34.908Z,80.88
2023-01-08T14:14:03.190Z,81.30
2023-01-08T14:16:30.429Z,80.69
2023-01-08T14:19:01.096Z,80.18
2023-01-08T14:21:31.441Z,79.24
2023-01-08T14:24:00.710Z,79.40
2023-01-08T14:26:37.641Z,79.00
2023-01-08T14:29:21.639Z,79.20
2023-01-08T14:31:56.459Z,78.61
2023-01-08T14:34:31.287Z,78.77
2023-01-08T14:37:00.826Z,79.20
2023-01-08T14:39:31.750Z,78.95
2023-01-08T14:42:25.973Z,79.16
2023-01-08T14:44:59.511Z,79.10
2023-01-08T14:47:39.403Z,78.97
2023-01-08T14:50:23.955Z,78.63
2023-01-08T14:53:09.067Z,78.93
2023-01-08T14:55:44.771Z,79.15
2023-01-08T14:58:23.787Z,78.74
2023-01-08T15:01:05.542Z,78.59
2023-01-08T15:03:40.694Z,78.91
2023-01-08T15:06:08.454Z,78.08
2023-01-08T15:08:39.490Z,77.89
2023-01-08T15:11:36.639Z,77.88
2023-01-08T15:14:20.096Z,78.49
2023-01-08T15:16:48.365Z,78.43
2023-01-08T15:19:28.216Z,78.66
2023-01-08T15:21:58.453Z,78.95
2023-01-08T15:24:29.538Z,78.70
2023-01-08T15:26:57.094Z,79.45
2023-01-08T15:29:33.106Z,79.37
2023-01-08T15:32:12.893Z,78.95
2023-01-08T15:34:45.212Z,78.92
2023-01-08T15:37:15.002Z,79.08
2023-01-08T15:39:42.792Z,78.90
2023-01-08T15:42:43.893Z,78.85
2023-01-08T15:45:15.062Z,79.57
2023-01-08T15:47:42.213Z,79.27
2023-01-08T15:50:09.433Z,78.95
2023-01-08T15:52:40.473Z,79.47
2023-01-08T15:55:11.655Z,79.06
2023-01-08T15:57:40.451Z,79.19
2023-01-08T16:00:08.420Z,79.25
2023-01-08T16:02:47.231Z,79.35
2023-01-08T16:05:19.369Z,79.39
2023-01-08T16:07:46.728Z,79.07
2023-01-08T16:10:15.223Z,79.52
2023-01-08T16:12:43.631Z,79.07
2023-01-08T16:15:19.703Z,79.34
2023-01-08T16:17:46.358Z,79.12
2023-01-08T16:20:14.384Z,79.11
2023-01-08T16:22:41.343Z,78.85
2023-01-08T16:25:09.413Z,78.45
2023-01-08T16:27:38.302Z,79.02
2023-01-08T16:30:07.138Z,78.72
2023-01-08T16:32:33.957Z,79.01
2023-01-08T16:35:00.635Z,78.85
2023-01-08T16:37:27.465Z,79.09
2023-01-08T16:39:54.099Z,78.95
2023-01-08T16:42:20.704Z,78.83
2023-01-08T16:44:47.415Z,79.31
2023-01-08T16:47:13.953Z,78.91
2023-01-08T16:49:41.832Z,78.40
2023-01-08T16:52:09.687Z,79.36
2023-01-08T16:54:36.535Z,78.64
2023-01-08T16:57:03.514Z,79.06
2023-01-08T16:59:32.496Z,78.62
2023-01-08T17:01:59.808Z,78.75
2023-01-08T17:04:28.369Z,78.87
2023-01-08T17:06:55.015Z,78.83
2023-01-08T17:09:22.053Z,78.89
2023-01-08T17:11:48.511Z,78.92
2023-01-08T17:14:15.242Z,78.81
2023-01-08T17:16:42.898Z,78.88
2023-01-08T17:19:09.480Z,78.87
2023-01-08T17:21:36.575Z,78.69
2023-01-08T17:24:04.429Z,79.01
2023-01-08T17:26:32.140Z,79.38
2023-01-08T17:28:59.407Z,78.90
2023-01-08T17:31:27.556Z,79.56
2023-01-08T17:33:54.542Z,79.48
2023-01-08T17:36:23.609Z,79.39
2023-01-08T17:38:53.105Z,80.23
2023-01-08T17:41:40.131Z,79.33
2023-01-08T17:44:08.416Z,80.52
2023-01-08T17:46:42.756Z,80.34
2023-01-08T17:49:11.191Z,80.04
2023-01-08T17:51:38.851Z,80.28
2023-01-08T17:54:09.433Z,81.25
2023-01-08T17:56:36.636Z,81.69
2023-01-08T17:59:03.648Z,81.40
2023-01-08T18:01:30.785Z,81.65
2023-01-08T18:03:57.917Z,81.54
2023-01-08T18:06:24.555Z,81.49
2023-01-08T18:08:51.669Z,81.58
2023-01-08T18:11:21.606Z,82.08
2023-01-08T18:13:48.278Z,81.62
2023-01-08T18:16:15.434Z,81.60
2023-01-08T18:18:42.219Z,81.59
2023-01-08T18:21:10.323Z,82.71
2023-01-08T18:23:37.116Z,82.37
2023-01-08T18:26:07.815Z,83.26
2023-01-08T18:28:36.378Z,83.54
2023-01-08T18:31:07.176Z,84.01
2023-01-08T18:33:35.313Z,84.19
2023-01-08T18:36:06.153Z,83.98
2023-01-08T18:38:33.537Z,84.20
2023-01-08T18:41:00.297Z,84.38
2023-01-08T18:43:27.337Z,84.58
2023-01-08T18:46:01.963Z,84.18
2023-01-08T18:48:29.382Z,84.18
2023-01-08T18:50:56.173Z,88.25
2023-01-08T18:53:23.871Z,91.34
2023-01-08T18:55:50.588Z,87.59
2023-01-08T18:58:17.439Z,83.17
2023-01-08T19:00:44.508Z,81.37
2023-01-08T19:03:12.262Z,80.86
2023-01-08T19:05:45.303Z,78.24
2023-01-08T19:08:12.087Z,78.25
2023-01-08T19:10:40.100Z,79.17
2023-01-08T19:13:06.988Z,80.37
2023-01-08T19:15:33.660Z,80.40
2023-01-08T19:18:00.414Z,81.75
2023-01-08T19:20:28.067Z,81.70
2023-01-08T19:22:55.264Z,83.81
2023-01-08T19:25:23.017Z,83.41
2023-01-08T19:27:52.362Z,83.98
2023-01-08T19:30:19.060Z,84.26
2023-01-08T19:32:48.837Z,84.54
2023-01-08T19:35:15.634Z,84.44
2023-01-08T19:37:43.168Z,84.38
2023-01-08T19:40:10.450Z,85.76
2023-01-08T19:42:55.589Z,86.51
2023-01-08T19:45:22.394Z,85.97
2023-01-08T19:47:49.136Z,87.33
2023-01-08T19:50:16.186Z,86.82
2023-01-08T19:52:42.675Z,86.99
2023-01-08T19:55:10.164Z,87.53
2023-01-08T19:57:36.717Z,87.00
2023-01-08T20:00:04.686Z,85.95
2023-01-08T20:02:38.440Z,86.80
2023-01-08T20:05:05.592Z,86.47
2023-01-08T20:07:32.090Z,86.46
2023-01-08T20:09:58.756Z,86.55
2023-01-08T20:12:25.493Z,86.64
2023-01-08T20:14:52.136Z,86.93
2023-01-08T20:17:21.735Z,87.26
2023-01-08T20:19:50.279Z,86.45
2023-01-08T20:22:17.212Z,86.71
2023-01-08T20:24:45.416Z,85.84
2023-01-08T20:27:12.020Z,86.43
2023-01-08T20:29:39.246Z,85.88
2023-01-08T20:32:06.223Z,86.17
2023-01-08T20:34:33.296Z,85.69
2023-01-08T20:37:00.929Z,85.97
2023-01-08T20:39:27.563Z,85.93
2023-01-08T20:42:01.055Z,85.47
2023-01-08T20:44:30.412Z,85.82
2023-01-08T20:46:57.057Z,86.22
2023-01-08T20:49:25.328Z,86.18
2023-01-08T20:51:58.443Z,86.64
2023-01-08T20:54:26.280Z,86.57
2023-01-08T20:56:55.108Z,87.08
2023-01-08T20:59:24.059Z,86.56
2023-01-08T21:01:51.101Z,86.43
2023-01-08T21:04:17.965Z,87.32
2023-01-08T21:06:45.755Z,88.09
2023-01-08T21:09:14.296Z,87.49
2023-01-08T21:11:41.289Z,87.24
2023-01-08T21:14:08.956Z,87.18
2023-01-08T21:16:37.122Z,86.79
2023-01-08T21:19:03.827Z,87.29
2023-01-08T21:21:33.294Z,86.69
2023-01-08T21:24:04.248Z,86.51
2023-01-08T21:26:33.972Z,86.70
2023-01-08T21:29:03.122Z,87.27
2023-01-08T21:31:33.833Z,86.95
2023-01-08T21:34:03.997Z,87.75
2023-01-08T21:36:31.962Z,87.30
2023-01-08T21:39:00.449Z,86.68
2023-01-08T21:41:48.841Z,87.66
2023-01-08T21:44:40.338Z,87.83
2023-01-08T21:47:10.834Z,87.17
2023-01-08T21:49:38.467Z,87.82
2023-01-08T21:52:24.501Z,87.91
2023-01-08T21:54:51.538Z,88.01
2023-01-08T21:57:18.473Z,88.26
2023-01-08T21:59:48.297Z,88.49
2023-01-08T22:02:18.205Z,88.70
2023-01-08T22:04:46.752Z,88.33
2023-01-08T22:07:14.078Z,88.06
2023-01-08T22:09:40.899Z,88.64
2023-01-08T22:12:08.687Z,89.39
2023-01-08T22:14:37.732Z,89.87
2023-01-08T22:17:08.208Z,89.37
2023-01-08T22:19:37.455Z,88.17
2023-01-08T22:22:04.454Z,88.47
2023-01-08T22:24:31.080Z,88.29
2023-01-08T22:26:57.698Z,88.87
2023-01-08T22:29:24.451Z,88.37
2023-01-08T22:31:51.245Z,87.95
2023-01-08T22:34:19.841Z,88.71
2023-01-08T22:36:50.694Z,88.26
2023-01-08T22:39:17.580Z,88.45
2023-01-08T22:41:44.771Z,88.71
2023-01-08T22:44:13.480Z,88.60
2023-01-08T22:46:40.706Z,88.77
2023-01-08T22:49:09.912Z,89.36
2023-01-08T22:51:41.224Z,89.07
2023-01-08T22:54:07.928Z,88.90
2023-01-08T22:56:34.395Z,88.79
2023-01-08T22:59:00.933Z,89.85
2023-01-08T23:01:27.899Z,89.62
2023-01-08T23:03:57.032Z,89.26
2023-01-08T23:06:25.888Z,89.52
2023-01-08T23:08:53.465Z,89.56
2023-01-08T23:11:22.516Z,88.97
2023-01-08T23:13:54.051Z,89.48
2023-01-08T23:16:24.812Z,88.92
2023-01-08T23:18:52.595Z,89.01
2023-01-08T23:21:21.130Z,88.76
2023-01-08T23:23:48.485Z,88.26
2023-01-08T23:26:21.004Z,87.88
2023-01-08T23:28:50.988Z,87.08
2023-01-08T23:31:21.594Z,87.83
2023-01-08T23:33:48.890Z,88.05
2023-01-08T23:36:18.439Z,87.13
2023-01-08T23:38:46.473Z,87.97
2023-01-08T23:41:13.743Z,88.70
2023-01-08T23:43:42.142Z,89.12
2023-01-08T23:46:09.662Z,88.85
2023-01-08T23:48:36.211Z,88.79
2023-01-08T23:51:04.433Z,89.14
2023-01-08T23:53:31.130Z,89.25
2023-01-08T23:55:58.685Z,89.97
2023-01-08T23:58:25.504Z,89.57
